sensor_id;sensor_type;location;lat;lon;timestamp;P1;durP1;ratioP1;P2;durP2;ratioP2
4724;SDS011;2376;53.544;10.226;2023-04-03T00:00:36;2.83;;;1.70;;
4724;SDS011;2376;53.544;10.226;2023-04-03T00:03:03;2.27;;;1.50;;
4724;SDS011;2376;53.544;10.226;2023-04-03T00:05:31;3.13;;;1.90;;
4724;SDS011;2376;53.544;10.226;2023-04-03T00:07:58;3.70;;;1.67;;
4724;SDS011;2376;53.544;10.226;2023-04-03T00:10:26;4.03;;;1.53;;
4724;SDS011;2376;53.544;10.226;2023-04-03T00:12:53;6.30;;;1.47;;
4724;SDS011;2376;53.544;10.226;2023-04-03T00:15:20;4.07;;;1.33;;
4724;SDS011;2376;53.544;10.226;2023-04-03T00:17:46;4.77;;;1.57;;
4724;SDS011;2376;53.544;10.226;2023-04-03T00:20:13;9.63;;;3.00;;
4724;SDS011;2376;53.544;10.226;2023-04-03T00:22:41;2.80;;;1.60;;
4724;SDS011;2376;53.544;10.226;2023-04-03T00:25:08;2.97;;;1.30;;
4724;SDS011;2376;53.544;10.226;2023-04-03T00:27:35;5.63;;;2.20;;
4724;SDS011;2376;53.544;10.226;2023-04-03T00:30:03;2.30;;;1.60;;
4724;SDS011;2376;53.544;10.226;2023-04-03T00:32:30;5.13;;;1.57;;
4724;SDS011;2376;53.544;10.226;2023-04-03T00:34:57;2.50;;;1.60;;
4724;SDS011;2376;53.544;10.226;2023-04-03T00:37:24;3.37;;;1.90;;
4724;SDS011;2376;53.544;10.226;2023-04-03T00:39:52;5.27;;;1.60;;
4724;SDS011;2376;53.544;10.226;2023-04-03T00:42:19;3.03;;;1.67;;
4724;SDS011;2376;53.544;10.226;2023-04-03T00:47:51;4.50;;;1.87;;
4724;SDS011;2376;53.544;10.226;2023-04-03T00:50:18;2.17;;;1.80;;
4724;SDS011;2376;53.544;10.226;2023-04-03T00:52:45;3.57;;;1.50;;
4724;SDS011;2376;53.544;10.226;2023-04-03T00:55:15;1.70;;;1.60;;
4724;SDS011;2376;53.544;10.226;2023-04-03T00:57:42;1.60;;;1.50;;
4724;SDS011;2376;53.544;10.226;2023-04-03T01:00:12;4.73;;;2.03;;
4724;SDS011;2376;53.544;10.226;2023-04-03T01:02:42;4.83;;;2.10;;
4724;SDS011;2376;53.544;10.226;2023-04-03T01:05:09;5.23;;;2.17;;
4724;SDS011;2376;53.544;10.226;2023-04-03T01:07:37;1.67;;;1.30;;
4724;SDS011;2376;53.544;10.226;2023-04-03T01:10:05;9.00;;;1.60;;
4724;SDS011;2376;53.544;10.226;2023-04-03T01:12:36;3.00;;;1.70;;
4724;SDS011;2376;53.544;10.226;2023-04-03T01:15:04;1.93;;;1.70;;
4724;SDS011;2376;53.544;10.226;2023-04-03T01:17:34;3.60;;;1.77;;
4724;SDS011;2376;53.544;10.226;2023-04-03T01:20:25;4.00;;;1.90;;
4724;SDS011;2376;53.544;10.226;2023-04-03T01:23:26;3.60;;;1.30;;
4724;SDS011;2376;53.544;10.226;2023-04-03T01:26:04;2.43;;;1.60;;
4724;SDS011;2376;53.544;10.226;2023-04-03T01:28:33;1.70;;;1.60;;
4724;SDS011;2376;53.544;10.226;2023-04-03T01:31:02;2.17;;;1.97;;
4724;SDS011;2376;53.544;10.226;2023-04-03T01:33:38;4.10;;;1.87;;
4724;SDS011;2376;53.544;10.226;2023-04-03T01:36:05;3.00;;;1.70;;
4724;SDS011;2376;53.544;10.226;2023-04-03T01:38:35;4.30;;;1.90;;
4724;SDS011;2376;53.544;10.226;2023-04-03T01:41:01;2.00;;;1.73;;
4724;SDS011;2376;53.544;10.226;2023-04-03T01:43:28;2.10;;;1.67;;
4724;SDS011;2376;53.544;10.226;2023-04-03T01:45:55;2.70;;;1.70;;
4724;SDS011;2376;53.544;10.226;2023-04-03T01:48:21;4.90;;;2.00;;
4724;SDS011;2376;53.544;10.226;2023-04-03T01:50:49;3.27;;;1.80;;
4724;SDS011;2376;53.544;10.226;2023-04-03T01:53:16;3.53;;;1.97;;
4724;SDS011;2376;53.544;10.226;2023-04-03T01:55:43;1.77;;;1.50;;
4724;SDS011;2376;53.544;10.226;2023-04-03T01:58:09;3.83;;;1.73;;
4724;SDS011;2376;53.544;10.226;2023-04-03T02:00:36;4.33;;;2.17;;
4724;SDS011;2376;53.544;10.226;2023-04-03T02:03:03;4.63;;;1.87;;
4724;SDS011;2376;53.544;10.226;2023-04-03T02:05:29;3.90;;;1.77;;
4724;SDS011;2376;53.544;10.226;2023-04-03T02:07:57;1.63;;;1.23;;
4724;SDS011;2376;53.544;10.226;2023-04-03T02:10:24;1.93;;;1.30;;
4724;SDS011;2376;53.544;10.226;2023-04-03T02:12:51;4.17;;;1.77;;
4724;SDS011;2376;53.544;10.226;2023-04-03T02:15:18;3.57;;;1.70;;
4724;SDS011;2376;53.544;10.226;2023-04-03T02:17:45;4.13;;;1.57;;
4724;SDS011;2376;53.544;10.226;2023-04-03T02:20:11;2.17;;;1.47;;
4724;SDS011;2376;53.544;10.226;2023-04-03T02:22:38;3.83;;;1.50;;
4724;SDS011;2376;53.544;10.226;2023-04-03T02:25:06;1.57;;;1.33;;
4724;SDS011;2376;53.544;10.226;2023-04-03T02:27:34;4.67;;;2.03;;
4724;SDS011;2376;53.544;10.226;2023-04-03T02:30:01;6.90;;;1.60;;
4724;SDS011;2376;53.544;10.226;2023-04-03T02:32:28;1.97;;;1.50;;
4724;SDS011;2376;53.544;10.226;2023-04-03T02:34:55;3.93;;;1.50;;
4724;SDS011;2376;53.544;10.226;2023-04-03T02:37:21;5.43;;;1.67;;
4724;SDS011;2376;53.544;10.226;2023-04-03T02:39:48;3.30;;;1.40;;
4724;SDS011;2376;53.544;10.226;2023-04-03T02:42:16;2.80;;;1.43;;
4724;SDS011;2376;53.544;10.226;2023-04-03T02:44:43;1.30;;;1.10;;
4724;SDS011;2376;53.544;10.226;2023-04-03T02:47:09;6.27;;;1.90;;
4724;SDS011;2376;53.544;10.226;2023-04-03T02:49:36;2.40;;;1.30;;
4724;SDS011;2376;53.544;10.226;2023-04-03T02:52:03;5.90;;;1.60;;
4724;SDS011;2376;53.544;10.226;2023-04-03T02:54:30;3.47;;;1.27;;
4724;SDS011;2376;53.544;10.226;2023-04-03T02:56:56;5.13;;;1.60;;
4724;SDS011;2376;53.544;10.226;2023-04-03T02:59:25;2.47;;;1.77;;
4724;SDS011;2376;53.544;10.226;2023-04-03T03:01:51;5.20;;;2.10;;
4724;SDS011;2376;53.544;10.226;2023-04-03T03:04:18;8.43;;;1.77;;
4724;SDS011;2376;53.544;10.226;2023-04-03T03:06:45;6.43;;;1.70;;
4724;SDS011;2376;53.544;10.226;2023-04-03T03:09:12;5.63;;;1.50;;
4724;SDS011;2376;53.544;10.226;2023-04-03T03:11:39;2.63;;;1.70;;
4724;SDS011;2376;53.544;10.226;2023-04-03T03:14:06;3.97;;;1.87;;
4724;SDS011;2376;53.544;10.226;2023-04-03T03:16:34;6.10;;;1.70;;
4724;SDS011;2376;53.544;10.226;2023-04-03T03:19:01;4.30;;;2.20;;
4724;SDS011;2376;53.544;10.226;2023-04-03T03:21:28;6.50;;;1.90;;
4724;SDS011;2376;53.544;10.226;2023-04-03T03:23:54;4.33;;;2.20;;
4724;SDS011;2376;53.544;10.226;2023-04-03T03:26:21;3.23;;;1.80;;
4724;SDS011;2376;53.544;10.226;2023-04-03T03:28:48;2.43;;;1.40;;
4724;SDS011;2376;53.544;10.226;2023-04-03T03:31:15;6.10;;;1.70;;
4724;SDS011;2376;53.544;10.226;2023-04-03T03:33:43;3.37;;;1.40;;
4724;SDS011;2376;53.544;10.226;2023-04-03T03:36:10;4.50;;;2.07;;
4724;SDS011;2376;53.544;10.226;2023-04-03T03:38:37;2.73;;;1.53;;
4724;SDS011;2376;53.544;10.226;2023-04-03T03:41:03;3.43;;;1.77;;
4724;SDS011;2376;53.544;10.226;2023-04-03T03:43:30;3.63;;;1.70;;
4724;SDS011;2376;53.544;10.226;2023-04-03T03:45:57;2.00;;;1.90;;
4724;SDS011;2376;53.544;10.226;2023-04-03T03:48:23;2.33;;;1.80;;
4724;SDS011;2376;53.544;10.226;2023-04-03T03:50:51;2.83;;;1.73;;
4724;SDS011;2376;53.544;10.226;2023-04-03T03:53:18;2.73;;;2.27;;
4724;SDS011;2376;53.544;10.226;2023-04-03T03:55:45;2.73;;;2.07;;
4724;SDS011;2376;53.544;10.226;2023-04-03T03:58:11;4.00;;;2.67;;
4724;SDS011;2376;53.544;10.226;2023-04-03T04:00:38;4.00;;;2.07;;
4724;SDS011;2376;53.544;10.226;2023-04-03T04:03:05;6.97;;;1.93;;
4724;SDS011;2376;53.544;10.226;2023-04-03T04:05:32;4.73;;;2.50;;
4724;SDS011;2376;53.544;10.226;2023-04-03T04:08:00;2.23;;;2.00;;
4724;SDS011;2376;53.544;10.226;2023-04-03T04:10:26;3.93;;;2.97;;
4724;SDS011;2376;53.544;10.226;2023-04-03T04:12:53;7.23;;;3.00;;
4724;SDS011;2376;53.544;10.226;2023-04-03T04:15:20;4.53;;;2.90;;
4724;SDS011;2376;53.544;10.226;2023-04-03T04:17:47;5.50;;;3.30;;
4724;SDS011;2376;53.544;10.226;2023-04-03T04:20:14;4.80;;;3.33;;
4724;SDS011;2376;53.544;10.226;2023-04-03T04:22:41;3.80;;;2.77;;
4724;SDS011;2376;53.544;10.226;2023-04-03T04:25:09;4.73;;;2.87;;
4724;SDS011;2376;53.544;10.226;2023-04-03T04:27:36;2.97;;;2.70;;
4724;SDS011;2376;53.544;10.226;2023-04-03T04:30:03;7.70;;;4.30;;
4724;SDS011;2376;53.544;10.226;2023-04-03T04:32:31;8.50;;;2.93;;
4724;SDS011;2376;53.544;10.226;2023-04-03T04:34:58;15.83;;;3.00;;
4724;SDS011;2376;53.544;10.226;2023-04-03T04:37:26;6.23;;;2.57;;
4724;SDS011;2376;53.544;10.226;2023-04-03T04:39:52;3.83;;;2.77;;
4724;SDS011;2376;53.544;10.226;2023-04-03T04:42:21;8.73;;;3.17;;
4724;SDS011;2376;53.544;10.226;2023-04-03T04:44:48;3.93;;;3.20;;
4724;SDS011;2376;53.544;10.226;2023-04-03T04:47:15;3.10;;;2.90;;
4724;SDS011;2376;53.544;10.226;2023-04-03T04:49:42;6.60;;;3.13;;
4724;SDS011;2376;53.544;10.226;2023-04-03T04:52:09;6.37;;;4.20;;
4724;SDS011;2376;53.544;10.226;2023-04-03T04:54:36;12.63;;;3.73;;
4724;SDS011;2376;53.544;10.226;2023-04-03T04:57:03;8.40;;;4.10;;
4724;SDS011;2376;53.544;10.226;2023-04-03T04:59:32;4.37;;;4.00;;
4724;SDS011;2376;53.544;10.226;2023-04-03T05:01:59;7.97;;;3.70;;
4724;SDS011;2376;53.544;10.226;2023-04-03T05:04:26;7.93;;;4.47;;
4724;SDS011;2376;53.544;10.226;2023-04-03T05:06:53;6.63;;;4.00;;
4724;SDS011;2376;53.544;10.226;2023-04-03T05:09:20;4.70;;;4.30;;
4724;SDS011;2376;53.544;10.226;2023-04-03T05:11:48;11.80;;;5.07;;
4724;SDS011;2376;53.544;10.226;2023-04-03T05:14:15;9.53;;;4.60;;
4724;SDS011;2376;53.544;10.226;2023-04-03T05:16:44;10.67;;;4.60;;
4724;SDS011;2376;53.544;10.226;2023-04-03T05:19:11;3.87;;;3.57;;
4724;SDS011;2376;53.544;10.226;2023-04-03T05:21:38;4.93;;;4.53;;
4724;SDS011;2376;53.544;10.226;2023-04-03T05:24:05;5.63;;;4.10;;
4724;SDS011;2376;53.544;10.226;2023-04-03T05:26:34;8.77;;;4.10;;
4724;SDS011;2376;53.544;10.226;2023-04-03T05:29:01;7.30;;;5.03;;
4724;SDS011;2376;53.544;10.226;2023-04-03T05:31:28;5.77;;;4.20;;
4724;SDS011;2376;53.544;10.226;2023-04-03T05:33:57;5.03;;;4.13;;
4724;SDS011;2376;53.544;10.226;2023-04-03T05:36:24;6.20;;;4.30;;
4724;SDS011;2376;53.544;10.226;2023-04-03T05:38:51;4.17;;;3.80;;
4724;SDS011;2376;53.544;10.226;2023-04-03T05:41:18;5.30;;;3.20;;
4724;SDS011;2376;53.544;10.226;2023-04-03T05:43:45;4.90;;;4.50;;
4724;SDS011;2376;53.544;10.226;2023-04-03T05:46:12;5.67;;;5.13;;
4724;SDS011;2376;53.544;10.226;2023-04-03T05:48:41;7.60;;;4.47;;
4724;SDS011;2376;53.544;10.226;2023-04-03T05:51:12;7.93;;;4.43;;
4724;SDS011;2376;53.544;10.226;2023-04-03T05:53:41;11.33;;;4.57;;
4724;SDS011;2376;53.544;10.226;2023-04-03T05:56:09;6.73;;;4.20;;
4724;SDS011;2376;53.544;10.226;2023-04-03T05:58:36;4.70;;;3.30;;
4724;SDS011;2376;53.544;10.226;2023-04-03T06:01:03;9.43;;;4.07;;
4724;SDS011;2376;53.544;10.226;2023-04-03T06:03:31;5.80;;;2.70;;
4724;SDS011;2376;53.544;10.226;2023-04-03T06:05:58;8.40;;;4.27;;
4724;SDS011;2376;53.544;10.226;2023-04-03T06:08:26;3.47;;;2.90;;
4724;SDS011;2376;53.544;10.226;2023-04-03T06:10:53;5.47;;;2.70;;
4724;SDS011;2376;53.544;10.226;2023-04-03T06:13:20;4.30;;;3.60;;
4724;SDS011;2376;53.544;10.226;2023-04-03T06:15:47;6.87;;;3.20;;
4724;SDS011;2376;53.544;10.226;2023-04-03T06:18:13;4.17;;;3.23;;
4724;SDS011;2376;53.544;10.226;2023-04-03T06:20:40;4.37;;;3.03;;
4724;SDS011;2376;53.544;10.226;2023-04-03T06:23:07;6.70;;;3.30;;
4724;SDS011;2376;53.544;10.226;2023-04-03T06:25:36;5.73;;;3.10;;
4724;SDS011;2376;53.544;10.226;2023-04-03T06:28:02;2.67;;;2.27;;
4724;SDS011;2376;53.544;10.226;2023-04-03T06:30:29;4.43;;;3.07;;
4724;SDS011;2376;53.544;10.226;2023-04-03T06:32:56;2.83;;;2.73;;
4724;SDS011;2376;53.544;10.226;2023-04-03T06:35:24;4.57;;;2.17;;
4724;SDS011;2376;53.544;10.226;2023-04-03T06:37:52;2.80;;;2.60;;
4724;SDS011;2376;53.544;10.226;2023-04-03T06:40:19;4.23;;;3.03;;
4724;SDS011;2376;53.544;10.226;2023-04-03T06:42:49;3.67;;;2.10;;
4724;SDS011;2376;53.544;10.226;2023-04-03T06:45:16;5.23;;;2.70;;
4724;SDS011;2376;53.544;10.226;2023-04-03T06:47:44;2.10;;;2.00;;
4724;SDS011;2376;53.544;10.226;2023-04-03T06:50:11;5.07;;;2.57;;
4724;SDS011;2376;53.544;10.226;2023-04-03T06:52:39;4.47;;;2.30;;
4724;SDS011;2376;53.544;10.226;2023-04-03T06:55:07;5.03;;;2.17;;
4724;SDS011;2376;53.544;10.226;2023-04-03T06:57:34;5.03;;;2.53;;
4724;SDS011;2376;53.544;10.226;2023-04-03T07:00:03;2.77;;;2.33;;
4724;SDS011;2376;53.544;10.226;2023-04-03T07:02:31;3.53;;;1.90;;
4724;SDS011;2376;53.544;10.226;2023-04-03T07:04:58;5.07;;;2.47;;
4724;SDS011;2376;53.544;10.226;2023-04-03T07:07:25;3.10;;;2.37;;
4724;SDS011;2376;53.544;10.226;2023-04-03T07:09:52;3.40;;;2.40;;
4724;SDS011;2376;53.544;10.226;2023-04-03T07:12:19;4.60;;;2.27;;
4724;SDS011;2376;53.544;10.226;2023-04-03T07:14:46;2.40;;;1.47;;
4724;SDS011;2376;53.544;10.226;2023-04-03T07:17:14;2.50;;;1.83;;
4724;SDS011;2376;53.544;10.226;2023-04-03T07:19:41;1.47;;;1.37;;
4724;SDS011;2376;53.544;10.226;2023-04-03T07:22:08;3.20;;;2.00;;
4724;SDS011;2376;53.544;10.226;2023-04-03T07:24:36;2.77;;;1.50;;
4724;SDS011;2376;53.544;10.226;2023-04-03T07:27:03;3.17;;;1.50;;
4724;SDS011;2376;53.544;10.226;2023-04-03T07:29:30;5.23;;;1.70;;
4724;SDS011;2376;53.544;10.226;2023-04-03T07:31:57;2.37;;;1.43;;
4724;SDS011;2376;53.544;10.226;2023-04-03T07:34:26;1.47;;;1.37;;
4724;SDS011;2376;53.544;10.226;2023-04-03T07:36:53;3.03;;;2.20;;
4724;SDS011;2376;53.544;10.226;2023-04-03T07:39:19;2.60;;;1.37;;
4724;SDS011;2376;53.544;10.226;2023-04-03T07:41:46;1.57;;;1.10;;
4724;SDS011;2376;53.544;10.226;2023-04-03T07:44:13;3.03;;;1.30;;
4724;SDS011;2376;53.544;10.226;2023-04-03T07:46:40;1.17;;;1.00;;
4724;SDS011;2376;53.544;10.226;2023-04-03T07:49:07;1.80;;;1.20;;
4724;SDS011;2376;53.544;10.226;2023-04-03T07:51:35;2.93;;;1.10;;
4724;SDS011;2376;53.544;10.226;2023-04-03T07:54:02;4.17;;;2.17;;
4724;SDS011;2376;53.544;10.226;2023-04-03T07:56:29;1.80;;;1.10;;
4724;SDS011;2376;53.544;10.226;2023-04-03T07:58:56;4.37;;;1.57;;
4724;SDS011;2376;53.544;10.226;2023-04-03T08:01:23;3.20;;;1.27;;
4724;SDS011;2376;53.544;10.226;2023-04-03T08:03:50;1.90;;;1.07;;
4724;SDS011;2376;53.544;10.226;2023-04-03T08:06:17;3.23;;;1.30;;
4724;SDS011;2376;53.544;10.226;2023-04-03T08:08:45;4.20;;;1.13;;
4724;SDS011;2376;53.544;10.226;2023-04-03T08:11:12;7.40;;;1.83;;
4724;SDS011;2376;53.544;10.226;2023-04-03T08:13:38;2.83;;;1.00;;
4724;SDS011;2376;53.544;10.226;2023-04-03T08:16:07;4.87;;;1.37;;
4724;SDS011;2376;53.544;10.226;2023-04-03T08:18:35;3.97;;;1.00;;
4724;SDS011;2376;53.544;10.226;2023-04-03T08:21:05;1.00;;;1.00;;
4724;SDS011;2376;53.544;10.226;2023-04-03T08:23:33;0.87;;;0.87;;
4724;SDS011;2376;53.544;10.226;2023-04-03T08:26:05;3.03;;;1.30;;
4724;SDS011;2376;53.544;10.226;2023-04-03T08:28:33;2.67;;;1.60;;
4724;SDS011;2376;53.544;10.226;2023-04-03T08:31:02;1.00;;;0.90;;
4724;SDS011;2376;53.544;10.226;2023-04-03T08:33:31;8.53;;;2.10;;
4724;SDS011;2376;53.544;10.226;2023-04-03T08:35:58;1.37;;;0.80;;
4724;SDS011;2376;53.544;10.226;2023-04-03T08:38:25;1.50;;;1.10;;
4724;SDS011;2376;53.544;10.226;2023-04-03T08:40:59;2.50;;;0.90;;
4724;SDS011;2376;53.544;10.226;2023-04-03T08:43:32;1.70;;;1.60;;
4724;SDS011;2376;53.544;10.226;2023-04-03T08:46:05;2.30;;;1.10;;
4724;SDS011;2376;53.544;10.226;2023-04-03T08:48:34;1.20;;;0.90;;
4724;SDS011;2376;53.544;10.226;2023-04-03T08:51:11;0.73;;;0.70;;
4724;SDS011;2376;53.544;10.226;2023-04-03T08:53:42;0.70;;;0.70;;
4724;SDS011;2376;53.544;10.226;2023-04-03T08:56:22;1.37;;;1.20;;
4724;SDS011;2376;53.544;10.226;2023-04-03T08:58:52;2.00;;;0.70;;
4724;SDS011;2376;53.544;10.226;2023-04-03T09:01:23;1.17;;;0.80;;
4724;SDS011;2376;53.544;10.226;2023-04-03T09:03:53;0.90;;;0.90;;
4724;SDS011;2376;53.544;10.226;2023-04-03T09:06:20;2.33;;;1.30;;
4724;SDS011;2376;53.544;10.226;2023-04-03T09:08:50;14.60;;;1.80;;
4724;SDS011;2376;53.544;10.226;2023-04-03T09:11:24;2.40;;;0.70;;
4724;SDS011;2376;53.544;10.226;2023-04-03T09:13:56;1.57;;;0.80;;
4724;SDS011;2376;53.544;10.226;2023-04-03T09:16:31;1.30;;;1.00;;
4724;SDS011;2376;53.544;10.226;2023-04-03T09:19:07;0.80;;;0.80;;
4724;SDS011;2376;53.544;10.226;2023-04-03T09:21:41;0.83;;;0.83;;
4724;SDS011;2376;53.544;10.226;2023-04-03T09:24:08;0.90;;;0.90;;
4724;SDS011;2376;53.544;10.226;2023-04-03T09:26:39;6.00;;;0.90;;
4724;SDS011;2376;53.544;10.226;2023-04-03T09:29:12;2.10;;;1.20;;
4724;SDS011;2376;53.544;10.226;2023-04-03T09:31:44;0.83;;;0.83;;
4724;SDS011;2376;53.544;10.226;2023-04-03T09:34:16;2.60;;;1.13;;
4724;SDS011;2376;53.544;10.226;2023-04-03T09:36:48;1.73;;;0.90;;
4724;SDS011;2376;53.544;10.226;2023-04-03T09:39:18;0.83;;;0.83;;
4724;SDS011;2376;53.544;10.226;2023-04-03T09:42:00;2.00;;;0.87;;
4724;SDS011;2376;53.544;10.226;2023-04-03T09:44:31;2.83;;;1.30;;
4724;SDS011;2376;53.544;10.226;2023-04-03T09:47:18;1.60;;;1.00;;
4724;SDS011;2376;53.544;10.226;2023-04-03T09:49:49;2.20;;;1.00;;
4724;SDS011;2376;53.544;10.226;2023-04-03T09:52:19;3.80;;;1.10;;
4724;SDS011;2376;53.544;10.226;2023-04-03T09:54:49;2.90;;;1.60;;
4724;SDS011;2376;53.544;10.226;2023-04-03T09:57:15;2.03;;;1.47;;
4724;SDS011;2376;53.544;10.226;2023-04-03T09:59:46;0.80;;;0.80;;
4724;SDS011;2376;53.544;10.226;2023-04-03T10:02:22;1.63;;;0.90;;
4724;SDS011;2376;53.544;10.226;2023-04-03T10:05:00;1.43;;;1.00;;
4724;SDS011;2376;53.544;10.226;2023-04-03T10:07:29;1.40;;;1.00;;
4724;SDS011;2376;53.544;10.226;2023-04-03T10:09:59;5.43;;;1.23;;
4724;SDS011;2376;53.544;10.226;2023-04-03T10:12:28;1.20;;;1.10;;
4724;SDS011;2376;53.544;10.226;2023-04-03T10:14:57;3.50;;;1.10;;
4724;SDS011;2376;53.544;10.226;2023-04-03T10:17:30;3.73;;;1.53;;
4724;SDS011;2376;53.544;10.226;2023-04-03T10:20:13;3.03;;;1.10;;
4724;SDS011;2376;53.544;10.226;2023-04-03T10:22:55;2.20;;;1.40;;
4724;SDS011;2376;53.544;10.226;2023-04-03T10:25:29;1.63;;;1.00;;
4724;SDS011;2376;53.544;10.226;2023-04-03T10:28:05;2.13;;;1.00;;
4724;SDS011;2376;53.544;10.226;2023-04-03T10:30:42;1.83;;;0.93;;
4724;SDS011;2376;53.544;10.226;2023-04-03T10:33:20;2.93;;;1.00;;
4724;SDS011;2376;53.544;10.226;2023-04-03T10:35:59;2.77;;;0.90;;
4724;SDS011;2376;53.544;10.226;2023-04-03T10:38:37;2.73;;;0.83;;
4724;SDS011;2376;53.544;10.226;2023-04-03T10:41:15;1.63;;;1.10;;
4724;SDS011;2376;53.544;10.226;2023-04-03T10:43:55;1.67;;;1.53;;
4724;SDS011;2376;53.544;10.226;2023-04-03T10:46:35;1.83;;;1.00;;
4724;SDS011;2376;53.544;10.226;2023-04-03T10:49:08;1.10;;;0.97;;
4724;SDS011;2376;53.544;10.226;2023-04-03T10:51:44;2.67;;;1.50;;
4724;SDS011;2376;53.544;10.226;2023-04-03T10:54:15;1.23;;;1.00;;
4724;SDS011;2376;53.544;10.226;2023-04-03T10:56:47;1.03;;;0.80;;
4724;SDS011;2376;53.544;10.226;2023-04-03T10:59:18;1.23;;;0.90;;
4724;SDS011;2376;53.544;10.226;2023-04-03T11:01:53;1.87;;;0.80;;
4724;SDS011;2376;53.544;10.226;2023-04-03T11:04:24;1.53;;;1.03;;
4724;SDS011;2376;53.544;10.226;2023-04-03T11:06:57;1.50;;;1.20;;
4724;SDS011;2376;53.544;10.226;2023-04-03T11:09:27;1.40;;;1.10;;
4724;SDS011;2376;53.544;10.226;2023-04-03T11:11:58;1.87;;;0.97;;
4724;SDS011;2376;53.544;10.226;2023-04-03T11:14:30;2.23;;;1.30;;
4724;SDS011;2376;53.544;10.226;2023-04-03T11:17:04;1.37;;;1.00;;
4724;SDS011;2376;53.544;10.226;2023-04-03T11:19:38;5.00;;;1.30;;
4724;SDS011;2376;53.544;10.226;2023-04-03T11:22:10;2.30;;;0.90;;
4724;SDS011;2376;53.544;10.226;2023-04-03T11:27:15;3.67;;;1.50;;
4724;SDS011;2376;53.544;10.226;2023-04-03T11:29:47;2.80;;;1.27;;
4724;SDS011;2376;53.544;10.226;2023-04-03T11:32:27;1.47;;;1.10;;
4724;SDS011;2376;53.544;10.226;2023-04-03T11:35:05;1.23;;;1.10;;
4724;SDS011;2376;53.544;10.226;2023-04-03T11:37:34;3.67;;;1.50;;
4724;SDS011;2376;53.544;10.226;2023-04-03T11:40:04;1.33;;;0.83;;
4724;SDS011;2376;53.544;10.226;2023-04-03T11:42:35;2.30;;;1.07;;
4724;SDS011;2376;53.544;10.226;2023-04-03T11:45:17;1.47;;;1.00;;
4724;SDS011;2376;53.544;10.226;2023-04-03T11:47:55;2.03;;;0.90;;
4724;SDS011;2376;53.544;10.226;2023-04-03T11:50:43;2.37;;;1.13;;
4724;SDS011;2376;53.544;10.226;2023-04-03T11:53:34;1.00;;;0.90;;
4724;SDS011;2376;53.544;10.226;2023-04-03T12:01:44;1.73;;;1.17;;
4724;SDS011;2376;53.544;10.226;2023-04-03T12:04:14;1.70;;;0.90;;
4724;SDS011;2376;53.544;10.226;2023-04-03T12:12:28;3.80;;;1.30;;
4724;SDS011;2376;53.544;10.226;2023-04-03T12:15:21;1.00;;;1.00;;
4724;SDS011;2376;53.544;10.226;2023-04-03T12:17:53;1.00;;;0.90;;
4724;SDS011;2376;53.544;10.226;2023-04-03T12:23:28;3.13;;;0.90;;
4724;SDS011;2376;53.544;10.226;2023-04-03T12:26:01;3.90;;;1.10;;
4724;SDS011;2376;53.544;10.226;2023-04-03T12:28:35;1.33;;;0.80;;
4724;SDS011;2376;53.544;10.226;2023-04-03T12:31:04;1.37;;;0.90;;
4724;SDS011;2376;53.544;10.226;2023-04-03T12:33:34;1.97;;;0.90;;
4724;SDS011;2376;53.544;10.226;2023-04-03T12:36:17;1.10;;;0.90;;
4724;SDS011;2376;53.544;10.226;2023-04-03T12:38:53;3.13;;;0.97;;
4724;SDS011;2376;53.544;10.226;2023-04-03T12:41:30;1.10;;;1.10;;
4724;SDS011;2376;53.544;10.226;2023-04-03T12:44:07;1.20;;;1.00;;
4724;SDS011;2376;53.544;10.226;2023-04-03T12:46:51;1.27;;;1.10;;
4724;SDS011;2376;53.544;10.226;2023-04-03T12:49:24;1.10;;;1.00;;
4724;SDS011;2376;53.544;10.226;2023-04-03T12:52:00;1.00;;;0.90;;
4724;SDS011;2376;53.544;10.226;2023-04-03T12:54:32;1.03;;;0.97;;
4724;SDS011;2376;53.544;10.226;2023-04-03T12:57:08;3.23;;;1.00;;
4724;SDS011;2376;53.544;10.226;2023-04-03T12:59:36;0.83;;;0.83;;
4724;SDS011;2376;53.544;10.226;2023-04-03T13:02:08;1.60;;;0.93;;
4724;SDS011;2376;53.544;10.226;2023-04-03T13:04:43;0.90;;;0.80;;
4724;SDS011;2376;53.544;10.226;2023-04-03T13:07:19;2.10;;;1.07;;
4724;SDS011;2376;53.544;10.226;2023-04-03T13:09:57;2.63;;;0.90;;
4724;SDS011;2376;53.544;10.226;2023-04-03T13:12:25;1.63;;;1.00;;
4724;SDS011;2376;53.544;10.226;2023-04-03T13:14:52;1.23;;;0.80;;
4724;SDS011;2376;53.544;10.226;2023-04-03T13:17:20;1.40;;;1.00;;
4724;SDS011;2376;53.544;10.226;2023-04-03T13:19:47;0.87;;;0.80;;
4724;SDS011;2376;53.544;10.226;2023-04-03T13:22:21;1.17;;;0.80;;
4724;SDS011;2376;53.544;10.226;2023-04-03T13:24:59;1.53;;;1.00;;
4724;SDS011;2376;53.544;10.226;2023-04-03T13:27:31;1.13;;;0.90;;
4724;SDS011;2376;53.544;10.226;2023-04-03T13:29:59;1.50;;;1.10;;
4724;SDS011;2376;53.544;10.226;2023-04-03T13:32:28;1.50;;;1.00;;
4724;SDS011;2376;53.544;10.226;2023-04-03T13:34:57;1.77;;;0.90;;
4724;SDS011;2376;53.544;10.226;2023-04-03T13:37:27;1.37;;;0.90;;
4724;SDS011;2376;53.544;10.226;2023-04-03T13:39:56;1.30;;;1.10;;
4724;SDS011;2376;53.544;10.226;2023-04-03T13:42:25;0.90;;;0.90;;
4724;SDS011;2376;53.544;10.226;2023-04-03T13:47:45;2.17;;;0.83;;
4724;SDS011;2376;53.544;10.226;2023-04-03T13:50:14;1.23;;;1.00;;
4724;SDS011;2376;53.544;10.226;2023-04-03T13:52:46;2.97;;;1.07;;
4724;SDS011;2376;53.544;10.226;2023-04-03T13:55:17;2.77;;;1.30;;
4724;SDS011;2376;53.544;10.226;2023-04-03T13:57:50;2.03;;;1.10;;
4724;SDS011;2376;53.544;10.226;2023-04-03T14:00:20;3.30;;;0.90;;
4724;SDS011;2376;53.544;10.226;2023-04-03T14:02:53;2.40;;;0.80;;
4724;SDS011;2376;53.544;10.226;2023-04-03T14:05:22;1.50;;;0.80;;
4724;SDS011;2376;53.544;10.226;2023-04-03T14:07:51;1.10;;;0.80;;
4724;SDS011;2376;53.544;10.226;2023-04-03T14:10:19;2.10;;;1.00;;
4724;SDS011;2376;53.544;10.226;2023-04-03T14:12:46;1.50;;;1.00;;
4724;SDS011;2376;53.544;10.226;2023-04-03T14:15:16;0.90;;;0.70;;
4724;SDS011;2376;53.544;10.226;2023-04-03T14:17:44;1.90;;;0.80;;
4724;SDS011;2376;53.544;10.226;2023-04-03T14:22:41;2.50;;;0.80;;
4724;SDS011;2376;53.544;10.226;2023-04-03T14:25:09;2.13;;;0.90;;
4724;SDS011;2376;53.544;10.226;2023-04-03T14:27:37;2.30;;;1.27;;
4724;SDS011;2376;53.544;10.226;2023-04-03T14:30:07;1.90;;;1.00;;
4724;SDS011;2376;53.544;10.226;2023-04-03T14:32:47;2.33;;;1.60;;
4724;SDS011;2376;53.544;10.226;2023-04-03T14:35:14;1.33;;;0.90;;
4724;SDS011;2376;53.544;10.226;2023-04-03T14:37:41;3.40;;;1.10;;
4724;SDS011;2376;53.544;10.226;2023-04-03T14:40:11;1.50;;;1.20;;
4724;SDS011;2376;53.544;10.226;2023-04-03T14:42:40;0.93;;;0.93;;
4724;SDS011;2376;53.544;10.226;2023-04-03T14:45:07;1.20;;;1.00;;
4724;SDS011;2376;53.544;10.226;2023-04-03T14:47:37;2.40;;;1.27;;
4724;SDS011;2376;53.544;10.226;2023-04-03T14:50:11;1.00;;;0.90;;
4724;SDS011;2376;53.544;10.226;2023-04-03T14:52:40;2.47;;;1.10;;
4724;SDS011;2376;53.544;10.226;2023-04-03T14:55:08;1.10;;;1.00;;
4724;SDS011;2376;53.544;10.226;2023-04-03T14:57:38;1.93;;;1.20;;
4724;SDS011;2376;53.544;10.226;2023-04-03T15:00:06;1.13;;;1.03;;
4724;SDS011;2376;53.544;10.226;2023-04-03T15:02:38;2.20;;;1.10;;
4724;SDS011;2376;53.544;10.226;2023-04-03T15:05:07;1.53;;;0.90;;
4724;SDS011;2376;53.544;10.226;2023-04-03T15:07:36;3.30;;;1.63;;
4724;SDS011;2376;53.544;10.226;2023-04-03T15:10:13;5.43;;;1.30;;
4724;SDS011;2376;53.544;10.226;2023-04-03T15:12:44;1.53;;;1.00;;
4724;SDS011;2376;53.544;10.226;2023-04-03T15:15:13;4.10;;;1.10;;
4724;SDS011;2376;53.544;10.226;2023-04-03T15:17:41;1.63;;;1.00;;
4724;SDS011;2376;53.544;10.226;2023-04-03T15:20:12;1.80;;;1.23;;
4724;SDS011;2376;53.544;10.226;2023-04-03T15:22:40;2.37;;;0.90;;
4724;SDS011;2376;53.544;10.226;2023-04-03T15:25:07;1.17;;;1.07;;
4724;SDS011;2376;53.544;10.226;2023-04-03T15:27:36;1.57;;;1.00;;
4724;SDS011;2376;53.544;10.226;2023-04-03T15:30:05;1.00;;;1.00;;
4724;SDS011;2376;53.544;10.226;2023-04-03T15:32:37;3.00;;;0.83;;
4724;SDS011;2376;53.544;10.226;2023-04-03T15:35:04;1.13;;;0.90;;
4724;SDS011;2376;53.544;10.226;2023-04-03T15:37:31;0.93;;;0.93;;
4724;SDS011;2376;53.544;10.226;2023-04-03T15:39:58;1.20;;;1.10;;